X  Fermer Données météorologiques d'aviation de Metar     LFOJ Orléans-Bricy (BA 123) Air Base
Température
14°C Température
10°C Point de rosée
77% Humidité



Vent
13 KM/H
8 MPH
4 M/S
7 KTS



360°
N
Conditions actuelles

Clair Clair
Pression 1025.92 (hPa) - 30.3 (inHg)
Visibilité 6.2 (mile) - 10 (km)
Aéroport
Code de l'aéroport LFOJ

Emplacement: Orléans-Bricy (BA 123) Air Base
Distance: 30 (km)

Metar:
LFOJ 060000Z AUTO 36007KT CAVOK 14/10 Q1026 NOSIG

Temps: 06-07-2022 02:00 CEST